Terminal Aerodrome Forecast
Issued by NWS

Home | Current Version | Previous Version | Text Only | Print | Product List | Glossary On
Versions: 1 2 3 4 5 6 7 8 9 10 11 12 13
000
FTUS45 KRIW 130533
TAFCPR
TAF
KCPR 130533Z 1306/1406 27013KT P6SM SCT110 BKN250
     FM130900 26011KT P6SM SCT110 BKN200
     FM131300 26008KT P6SM SCT200
     FM132300 33006KT P6SM BKN100
     FM140200 36008KT P6SM VCSH BKN024
     FM140400 36007KT 3SM -SN OVC015=

USA.gov is the U.S. government's official web portal to all federal, state and local government web resources and services.